»·PEaware :: DAL4243 KSFO-KSNA

DAL4243 :: KSFO-KSNA

FLIGHT INFORMATION

Flight Status: Arrived
Operator:
Delta Air Lines
More flights by this operator :: More flights under this callsign
Pilot: Sean Bradley (13609)
Aircraft: BOEING 757-200
(B752)
More flights by this aircraft type
Origin: KSFO San Francisco Intl
United States
Destination: KSNA John Wayne-Orange Co
United States
More flights between these airports :: More routes between these airports
Route: +OFFSH1 SXC SLI
File this flight plan on PilotEdge
Remarks:
Altitude:
(Current/Filed)
35,000ft
Speed:
(Current/Filed)
430kts
Departed: 05-Jan-17 11:35 AM
Arrived: 05-Jan-17 12:58 PM
Distance/Time
Traveled:
323nm/1:23
Distance/Time
To Go:
Arrived

Flight Plot

Page will automatically refresh every two minutes.


Map Options




Map Legend


Flown Route
Filed Route
Departure Airport
Arrival Airport
Navaid (VOR, NDB)
Fix

Horizontal Profiles

Position Reports

Time Latitude Longitude Heading Altitude Ground
Speed
05-Jan-17 10:50 37.614307 -122.382761 27 34ft 0kts
05-Jan-17 10:51 37.614307 -122.382761 27 34ft 0kts
05-Jan-17 10:52 37.614307 -122.382761 27 34ft 0kts
05-Jan-17 10:59 37.614307 -122.382761 27 34ft 0kts
05-Jan-17 11:00 37.614307 -122.382761 27 34ft 0kts
05-Jan-17 11:01 37.614307 -122.382761 27 34ft 0kts
05-Jan-17 11:02 37.614307 -122.382761 27 34ft 0kts
05-Jan-17 11:03 37.614307 -122.382761 27 34ft 0kts
05-Jan-17 11:04 37.614307 -122.382761 27 34ft 0kts
05-Jan-17 11:05 37.614307 -122.382761 27 34ft 0kts
05-Jan-17 11:06 37.614307 -122.382761 27 34ft 0kts
05-Jan-17 11:07 37.614307 -122.382761 27 34ft 0kts
05-Jan-17 11:08 37.614307 -122.382761 27 34ft 0kts
05-Jan-17 11:09 37.614307 -122.382761 27 34ft 0kts
05-Jan-17 11:10 37.614307 -122.382761 27 34ft 0kts
05-Jan-17 11:11 37.614307 -122.382761 27 34ft 0kts
05-Jan-17 11:12 37.614307 -122.382761 27 34ft 0kts
05-Jan-17 11:13 37.614307 -122.382761 27 34ft 0kts
05-Jan-17 11:14 37.614307 -122.382761 27 34ft 0kts
05-Jan-17 11:15 37.614307 -122.382761 27 34ft 0kts
05-Jan-17 11:16 37.614307 -122.382761 27 34ft 0kts
05-Jan-17 11:17 37.614307 -122.382761 27 34ft 0kts
05-Jan-17 11:18 37.614307 -122.382761 27 34ft 0kts
05-Jan-17 11:19 37.614307 -122.382761 27 34ft 0kts
05-Jan-17 11:20 37.614307 -122.382761 27 34ft 0kts
05-Jan-17 11:21 37.614307 -122.382761 27 34ft 0kts
05-Jan-17 11:22 37.614307 -122.382761 27 34ft 0kts
05-Jan-17 11:23 37.614307 -122.382761 27 34ft 0kts
05-Jan-17 11:24 37.614129 -122.382870 25 34ft 2kts
05-Jan-17 11:25 37.613922 -122.383294 111 35ft 1kts
05-Jan-17 11:26 37.613949 -122.383369 118 34ft 0kts
05-Jan-17 11:27 37.613949 -122.383369 118 34ft 0kts
05-Jan-17 11:28 37.613949 -122.383369 118 34ft 0kts
05-Jan-17 11:29 37.613949 -122.383369 118 34ft 0kts
05-Jan-17 11:30 37.613949 -122.383369 118 34ft 0kts
05-Jan-17 11:31 37.613763 -122.382928 118 34ft 6kts
05-Jan-17 11:32 37.612219 -122.382553 208 35ft 11kts
05-Jan-17 11:33 37.610133 -122.383989 209 34ft 13kts
05-Jan-17 11:34 37.609009 -122.383250 123 34ft 5kts
05-Jan-17 11:35 37.612536 -122.379859 28 34ft 96kts
05-Jan-17 11:36 37.642149 -122.368868 355 1535ft 166kts
05-Jan-17 11:37 37.686894 -122.365603 348 3300ft 230kts
05-Jan-17 11:38 37.706044 -122.415057 247 6668ft 231kts
05-Jan-17 11:39 37.679270 -122.468961 244 9548ft 241kts
05-Jan-17 11:40 37.644256 -122.534947 242 11468ft 296kts
05-Jan-17 11:41 37.600865 -122.614406 242 14244ft 323kts
05-Jan-17 11:42 37.556905 -122.694169 241 16994ft 333kts
05-Jan-17 11:43 37.493903 -122.756801 202 19431ft 381kts
05-Jan-17 11:44 37.396069 -122.741131 164 21639ft 441kts
05-Jan-17 11:45 37.296554 -122.669435 171 23592ft 446kts
05-Jan-17 11:46 37.183958 -122.633699 180 25422ft 449kts
05-Jan-17 11:47 37.068677 -122.603275 180 27064ft 461kts
05-Jan-17 11:48 36.949745 -122.572193 181 28574ft 472kts
05-Jan-17 11:49 36.844936 -122.543303 181 29741ft 483kts
05-Jan-17 11:50 36.721418 -122.510667 181 31061ft 490kts
05-Jan-17 11:51 36.591288 -122.477387 181 32897ft 483kts
05-Jan-17 11:52 36.462710 -122.441523 171 34504ft 496kts
05-Jan-17 11:53 36.359723 -122.352277 138 35146ft 541kts
05-Jan-17 11:54 36.270219 -122.215969 138 35122ft 544kts
05-Jan-17 11:55 36.173078 -122.073548 138 35121ft 544kts
05-Jan-17 11:56 36.075477 -121.932727 139 35130ft 543kts
05-Jan-17 11:57 35.977075 -121.792527 139 35134ft 544kts
05-Jan-17 11:58 35.880390 -121.653954 139 35134ft 545kts
05-Jan-17 11:59 35.788251 -121.520743 138 35063ft 546kts
05-Jan-17 12:00 35.726283 -121.431930 139 35069ft 546kts
05-Jan-17 12:01 35.650125 -121.323629 139 35047ft 545kts
05-Jan-17 12:02 35.573240 -121.213100 139 35050ft 548kts
05-Jan-17 12:03 35.497182 -121.109869 144 35049ft 542kts
05-Jan-17 12:04 35.404876 -121.025723 157 35074ft 521kts
05-Jan-17 12:05 35.299738 -120.940829 158 35075ft 520kts
05-Jan-17 12:06 35.193931 -120.857775 158 35077ft 520kts
05-Jan-17 12:07 35.087584 -120.773776 158 35080ft 520kts
05-Jan-17 12:08 34.978368 -120.688036 158 35082ft 521kts
05-Jan-17 12:09 34.880645 -120.611831 159 35081ft 521kts
05-Jan-17 12:10 34.783353 -120.536506 159 35104ft 520kts
05-Jan-17 12:11 34.688506 -120.463427 161 35036ft 516kts
05-Jan-17 12:12 34.583722 -120.382490 158 34801ft 525kts
05-Jan-17 12:13 34.474456 -120.298257 160 33430ft 497kts
05-Jan-17 12:14 34.380153 -120.225533 159 32597ft 500kts
05-Jan-17 12:15 34.279647 -120.146645 150 31720ft 513kts
05-Jan-17 12:16 34.193004 -120.013005 129 30789ft 537kts
05-Jan-17 12:17 34.123817 -119.879429 127 29945ft 540kts
05-Jan-17 12:18 34.060289 -119.754839 127 27484ft 516kts
05-Jan-17 12:19 34.000215 -119.637267 128 25159ft 493kts
05-Jan-17 12:20 33.935152 -119.510374 127 22757ft 471kts
05-Jan-17 12:21 33.872632 -119.388874 127 20524ft 455kts
05-Jan-17 12:22 33.816053 -119.279230 126 18502ft 439kts
05-Jan-17 12:23 33.763094 -119.172601 126 16610ft 425kts
05-Jan-17 12:24 33.715127 -119.072820 125 14911ft 408kts
05-Jan-17 12:25 33.664819 -118.976173 126 13247ft 393kts
05-Jan-17 12:26 33.613759 -118.879439 126 11512ft 374kts
05-Jan-17 12:27 33.564561 -118.783184 125 9542ft 335kts
05-Jan-17 12:28 33.521424 -118.699532 119 7910ft 308kts
05-Jan-17 12:29 33.522500 -118.601708 81 6571ft 308kts
05-Jan-17 12:30 33.532091 -118.512427 81 5522ft 299kts
05-Jan-17 12:31 33.540205 -118.437309 81 4979ft 291kts
05-Jan-17 12:32 33.547165 -118.372978 81 4976ft 289kts
05-Jan-17 12:33 33.553099 -118.317696 81 4960ft 288kts
05-Jan-17 12:34 33.560357 -118.245080 81 4963ft 288kts
05-Jan-17 12:35 33.566638 -118.181278 81 4963ft 287kts
05-Jan-17 12:36 33.598896 -118.118858 41 4944ft 248kts
05-Jan-17 12:37 33.639985 -118.066198 41 4954ft 250kts
05-Jan-17 12:38 33.677772 -118.021171 36 4956ft 251kts
05-Jan-17 12:39 33.717973 -117.979726 36 4956ft 254kts
05-Jan-17 12:40 33.758352 -117.939111 36 4956ft 255kts
05-Jan-17 12:41 33.797942 -117.899341 35 4965ft 246kts
05-Jan-17 12:42 33.836001 -117.857538 36 4965ft 249kts
05-Jan-17 12:43 33.876224 -117.816669 37 4962ft 256kts
05-Jan-17 12:44 33.909238 -117.771603 73 4941ft 233kts
05-Jan-17 12:45 33.883750 -117.730057 178 4966ft 217kts
05-Jan-17 12:46 33.847183 -117.732622 226 4256ft 193kts
05-Jan-17 12:47 33.830205 -117.760707 279 3996ft 167kts
05-Jan-17 12:48 33.850339 -117.777241 351 4021ft 166kts
05-Jan-17 12:49 33.874645 -117.789834 337 4007ft 163kts
05-Jan-17 12:50 33.897235 -117.765862 89 4007ft 201kts
05-Jan-17 12:51 33.866812 -117.742186 199 3984ft 198kts
05-Jan-17 12:52 33.833657 -117.764333 221 3257ft 180kts
05-Jan-17 12:53 33.800993 -117.788455 214 2722ft 184kts
05-Jan-17 12:54 33.766379 -117.811199 208 2008ft 182kts
05-Jan-17 12:55 33.735952 -117.830632 202 1292ft 147kts
05-Jan-17 12:56 33.709952 -117.847191 204 629ft 143kts
05-Jan-17 12:57 33.682820 -117.864352 205 113ft 142kts
05-Jan-17 12:58 33.668036 -117.873332 166 67ft 14kts
05-Jan-17 12:59 33.667589 -117.872956 127 68ft 0kts
05-Jan-17 13:00 33.667560 -117.872802 86 68ft 4kts
05-Jan-17 13:01 33.668704 -117.871403 40 67ft 10kts
05-Jan-17 13:02 33.670482 -117.869566 40 68ft 8kts
05-Jan-17 13:03 33.672000 -117.868235 29 68ft 11kts
05-Jan-17 13:04 33.674020 -117.866549 27 67ft 12kts
05-Jan-17 13:05 33.677152 -117.864598 25 67ft 4kts
05-Jan-17 13:06 33.677214 -117.863742 117 67ft 0kts
05-Jan-17 13:07 33.677214 -117.863742 117 67ft 0kts
05-Jan-17 13:08 33.677214 -117.863742 117 67ft 0kts
05-Jan-17 13:09 33.677214 -117.863742 117 67ft 0kts
05-Jan-17 13:10 33.677214 -117.863742 117 68ft 0kts

Navigation Log

Ident Type
1. KSFO Airport
2. MCKEY Fix
3. DAISY Fix
4. SXC Navaid
5. SLI Navaid
6. KSNA Airport